Time;durP1;ratioP1;P1;durP2;ratioP2;P2;SDS_P1;SDS_P2;PMS_P1;PMS_P2;Temp;Humidity;BMP_temperature;BMP_pressure;BME280_temperature;BME280_humidity;BME280_pressure;Samples;Min_cycle;Max_cycle;Signal;HPM_P1;HPM_P2
2022/01/25 00:15:04;;;;;;;15.40;9.10;;;;;;;;;;4993589;28;20263;-94
2022/01/25 00:24:50;;;;;;;19.03;11.30;;;;;;;;;;5012518;28;20327;-93
2022/01/25 00:27:39;;;;;;;18.77;10.40;;;;;;;;;;5028940;28;20263;-93
2022/01/25 00:32:57;;;;;;;14.23;8.33;;;;;;;;;;5026281;28;20238;-93
2022/01/25 00:35:24;;;;;;;15.97;8.60;;;;;;;;;;5029777;28;20218;-93
2022/01/25 00:37:53;;;;;;;15.10;8.30;;;;;;;;;;5021546;28;20269;-93
2022/01/25 00:40:20;;;;;;;19.53;9.47;;;;;;;;;;5031227;28;20276;-93
2022/01/25 00:42:47;;;;;;;15.40;8.97;;;;;;;;;;5026727;28;20639;-94
2022/01/25 00:45:16;;;;;;;13.53;7.80;;;;;;;;;;5033649;28;20210;-93
2022/01/25 00:47:47;;;;;;;13.43;7.37;;;;;;;;;;5038166;28;20207;-93
2022/01/25 00:50:15;;;;;;;12.87;7.57;;;;;;;;;;5031365;28;20218;-93
2022/01/25 00:55:30;;;;;;;13.20;7.80;;;;;;;;;;5033846;28;20212;-92
2022/01/25 00:57:58;;;;;;;12.97;7.33;;;;;;;;;;5031398;28;20206;-94
2022/01/25 01:00:26;;;;;;;11.90;7.30;;;;;;;;;;5020877;28;20747;-92
2022/01/25 01:02:54;;;;;;;12.97;7.40;;;;;;;;;;5035987;28;20219;-93
2022/01/25 01:05:22;;;;;;;11.97;7.80;;;;;;;;;;5042646;28;20218;-93
2022/01/25 01:07:49;;;;;;;14.30;8.40;;;;;;;;;;5022871;28;20298;-93
2022/01/25 01:10:20;;;;;;;16.57;8.67;;;;;;;;;;5038349;28;20275;-93
2022/01/25 01:15:40;;;;;;;17.13;8.60;;;;;;;;;;5014732;28;20265;-93
2022/01/25 01:29:24;;;;;;;14.00;8.07;;;;;;;;;;5041967;28;20269;-93
2022/01/25 01:32:00;;;;;;;10.47;7.30;;;;;;;;;;5038876;28;20203;-93
2022/01/25 01:34:58;;;;;;;13.03;7.60;;;;;;;;;;5031122;28;20627;-93
2022/01/25 01:43:17;;;;;;;12.90;7.07;;;;;;;;;;5030809;28;20840;-93
2022/01/25 01:45:56;;;;;;;13.23;7.57;;;;;;;;;;5033009;28;20234;-92
2022/01/25 01:48:29;;;;;;;12.10;7.43;;;;;;;;;;5028785;28;20550;-93
2022/01/25 01:51:02;;;;;;;11.23;7.03;;;;;;;;;;5034332;28;20218;-94
2022/01/25 01:53:30;;;;;;;16.07;8.67;;;;;;;;;;5035985;28;20206;-93
2022/01/25 01:55:57;;;;;;;18.63;7.97;;;;;;;;;;5044048;28;20268;-91
2022/01/25 01:58:24;;;;;;;12.77;7.80;;;;;;;;;;5050397;28;20585;-93
2022/01/25 02:00:53;;;;;;;13.07;8.07;;;;;;;;;;5031566;28;20226;-93
2022/01/25 02:03:21;;;;;;;14.37;8.13;;;;;;;;;;5027484;28;20207;-93
2022/01/25 02:05:48;;;;;;;11.17;6.30;;;;;;;;;;5037859;28;20602;-94
2022/01/25 02:08:15;;;;;;;13.03;7.93;;;;;;;;;;5026225;28;20221;-93
2022/01/25 02:10:43;;;;;;;13.80;8.30;;;;;;;;;;5019413;28;20264;-93
2022/01/25 02:13:11;;;;;;;15.00;9.00;;;;;;;;;;5041772;28;20214;-93
2022/01/25 02:15:40;;;;;;;13.67;8.33;;;;;;;;;;5042159;28;20211;-93
2022/01/25 02:23:44;;;;;;;12.73;7.53;;;;;;;;;;5051483;28;20252;-93
2022/01/25 02:26:12;;;;;;;17.30;7.63;;;;;;;;;;5033492;28;20565;-93
2022/01/25 02:28:41;;;;;;;13.60;8.13;;;;;;;;;;5027892;28;20246;-93
2022/01/25 02:31:09;;;;;;;14.20;8.63;;;;;;;;;;5043991;28;20205;-92
2022/01/25 02:33:37;;;;;;;16.47;9.03;;;;;;;;;;5051410;28;20210;-93
2022/01/25 02:36:07;;;;;;;13.00;7.97;;;;;;;;;;5046690;28;20218;-93
2022/01/25 02:38:34;;;;;;;18.27;10.00;;;;;;;;;;5030499;28;20691;-93
2022/01/25 02:41:03;;;;;;;12.00;7.63;;;;;;;;;;5051088;28;20226;-93
2022/01/25 02:43:34;;;;;;;13.60;8.33;;;;;;;;;;5039907;28;20221;-93
2022/01/25 02:46:23;;;;;;;13.23;8.27;;;;;;;;;;5026264;28;20579;-92
2022/01/25 02:48:50;;;;;;;11.47;8.07;;;;;;;;;;5030295;28;20678;-93
2022/01/25 02:51:19;;;;;;;11.57;5.97;;;;;;;;;;5038410;28;20194;-93
2022/01/25 02:53:47;;;;;;;12.23;6.77;;;;;;;;;;5030411;28;20282;-93
2022/01/25 02:56:15;;;;;;;10.77;6.57;;;;;;;;;;5016812;28;20201;-93
2022/01/25 02:58:42;;;;;;;12.13;6.60;;;;;;;;;;5026504;28;20261;-93
2022/01/25 03:01:09;;;;;;;11.73;7.63;;;;;;;;;;5041357;28;20802;-93
2022/01/25 03:03:37;;;;;;;13.67;8.00;;;;;;;;;;5032635;28;20226;-92
2022/01/25 03:06:04;;;;;;;12.33;8.07;;;;;;;;;;5033801;28;20206;-93
2022/01/25 03:08:33;;;;;;;12.13;8.37;;;;;;;;;;5036024;28;20226;-93
2022/01/25 03:11:00;;;;;;;17.30;8.53;;;;;;;;;;5050989;28;20807;-93
2022/01/25 03:13:33;;;;;;;15.50;9.23;;;;;;;;;;5038473;28;20211;-93
2022/01/25 03:16:04;;;;;;;17.20;9.40;;;;;;;;;;5035781;28;20307;-92
2022/01/25 03:18:43;;;;;;;15.00;8.77;;;;;;;;;;5040865;28;20223;-93
2022/01/25 03:23:58;;;;;;;12.20;7.57;;;;;;;;;;5029935;28;20800;-93
2022/01/25 03:26:26;;;;;;;10.30;6.70;;;;;;;;;;5032081;28;20206;-93
2022/01/25 03:28:53;;;;;;;14.50;7.97;;;;;;;;;;5042539;28;20226;-92
2022/01/25 03:31:21;;;;;;;14.63;7.67;;;;;;;;;;5012832;28;20207;-92
2022/01/25 03:33:48;;;;;;;13.97;8.07;;;;;;;;;;5028306;28;20207;-92
2022/01/25 03:36:16;;;;;;;12.93;7.97;;;;;;;;;;5027392;28;20670;-93
2022/01/25 03:38:43;;;;;;;15.57;8.83;;;;;;;;;;5036103;28;20234;-93
2022/01/25 03:41:13;;;;;;;14.50;8.10;;;;;;;;;;5031337;28;20229;-93
2022/01/25 03:43:40;;;;;;;13.27;7.77;;;;;;;;;;5040559;28;20218;-93
2022/01/25 03:46:14;;;;;;;13.80;8.23;;;;;;;;;;5042205;28;20217;-93
2022/01/25 03:51:26;;;;;;;14.43;8.07;;;;;;;;;;5028299;28;20313;-92
2022/01/25 03:53:53;;;;;;;16.07;8.57;;;;;;;;;;5030233;28;20285;-93
2022/01/25 03:56:22;;;;;;;13.20;7.57;;;;;;;;;;5043436;28;20659;-92
2022/01/25 03:58:50;;;;;;;15.10;8.60;;;;;;;;;;5052288;28;20220;-92
2022/01/25 04:01:18;;;;;;;13.30;7.60;;;;;;;;;;5026969;28;20674;-92
2022/01/25 04:03:54;;;;;;;14.63;7.30;;;;;;;;;;5034355;28;20210;-93
2022/01/25 04:06:22;;;;;;;16.13;9.13;;;;;;;;;;5034791;28;20212;-92
2022/01/25 04:08:49;;;;;;;15.87;8.43;;;;;;;;;;5050912;28;20278;-93
2022/01/25 04:11:17;;;;;;;12.70;7.70;;;;;;;;;;5026768;28;20210;-93
2022/01/25 04:13:45;;;;;;;14.33;7.13;;;;;;;;;;5039323;28;20194;-92
2022/01/25 04:16:19;;;;;;;13.07;7.57;;;;;;;;;;5039765;28;20214;-93
2022/01/25 04:19:00;;;;;;;11.43;7.70;;;;;;;;;;5025147;28;20310;-93
2022/01/25 04:21:45;;;;;;;12.40;7.63;;;;;;;;;;5039513;28;20305;-93
2022/01/25 04:26:59;;;;;;;13.83;7.47;;;;;;;;;;5031102;28;20707;-93
2022/01/25 04:29:28;;;;;;;12.90;7.20;;;;;;;;;;5029507;28;20222;-93
2022/01/25 04:31:56;;;;;;;17.23;9.53;;;;;;;;;;5039519;28;20352;-92
2022/01/25 04:34:40;;;;;;;12.03;7.90;;;;;;;;;;5032121;28;20209;-93
2022/01/25 04:53:50;;;;;;;14.60;8.67;;;;;;;;;;5018701;28;20285;-93
2022/01/25 04:56:24;;;;;;;13.40;8.60;;;;;;;;;;5028795;28;20210;-93
2022/01/25 04:58:58;;;;;;;12.73;7.87;;;;;;;;;;5034997;28;20222;-92
2022/01/25 05:01:27;;;;;;;13.53;7.20;;;;;;;;;;5049706;28;20231;-93
2022/01/25 05:04:05;;;;;;;12.13;8.70;;;;;;;;;;5028526;28;20215;-93
2022/01/25 05:06:33;;;;;;;16.97;8.77;;;;;;;;;;5036420;28;20278;-93
2022/01/25 05:09:09;;;;;;;15.77;8.07;;;;;;;;;;5033832;28;20254;-92
2022/01/25 05:11:39;;;;;;;14.07;8.67;;;;;;;;;;5026350;28;20211;-93
2022/01/25 05:14:18;;;;;;;12.90;7.97;;;;;;;;;;5028221;28;20221;-93
2022/01/25 05:16:55;;;;;;;13.83;8.03;;;;;;;;;;5028589;28;20222;-93
2022/01/25 05:22:03;;;;;;;14.73;8.17;;;;;;;;;;5030543;28;20238;-93
2022/01/25 05:22:23;;;;;;;10.70;7.43;;;;;;;;;;5049850;28;20203;-93
2022/01/25 05:24:50;;;;;;;13.60;7.47;;;;;;;;;;5040462;28;20201;-92
2022/01/25 05:27:18;;;;;;;13.17;7.80;;;;;;;;;;5051247;28;20210;-93
2022/01/25 05:29:46;;;;;;;13.30;7.50;;;;;;;;;;5035607;28;20246;-93
2022/01/25 05:32:13;;;;;;;15.60;8.37;;;;;;;;;;5036551;28;20248;-92
2022/01/25 05:34:42;;;;;;;15.57;9.67;;;;;;;;;;5043571;28;20198;-93
2022/01/25 05:37:09;;;;;;;13.63;7.33;;;;;;;;;;5034307;28;20219;-93
2022/01/25 05:39:37;;;;;;;13.40;8.00;;;;;;;;;;5035003;28;20242;-93
2022/01/25 05:42:20;;;;;;;13.67;8.87;;;;;;;;;;5046752;28;20674;-93
2022/01/25 05:45:10;;;;;;;15.93;9.43;;;;;;;;;;5046999;28;20198;-93
2022/01/25 05:47:38;;;;;;;13.80;9.00;;;;;;;;;;5049773;28;20209;-93
2022/01/25 05:50:07;;;;;;;12.33;7.93;;;;;;;;;;5030946;28;20258;-93
2022/01/25 05:52:34;;;;;;;13.93;8.73;;;;;;;;;;5045657;28;20259;-94
2022/01/25 05:55:05;;;;;;;17.87;9.53;;;;;;;;;;5055619;28;20209;-93
2022/01/25 05:57:32;;;;;;;18.83;9.53;;;;;;;;;;5056684;28;20289;-93
2022/01/25 06:00:00;;;;;;;14.63;8.57;;;;;;;;;;5055053;28;20230;-94
2022/01/25 06:02:30;;;;;;;11.07;7.10;;;;;;;;;;5055106;28;20209;-94
2022/01/25 06:05:25;;;;;;;12.40;7.80;;;;;;;;;;5036017;28;20297;-93
2022/01/25 06:07:53;;;;;;;14.43;8.17;;;;;;;;;;5055216;28;20212;-92
2022/01/25 06:10:21;;;;;;;17.87;9.07;;;;;;;;;;5040055;28;20704;-92
2022/01/25 06:12:48;;;;;;;14.77;8.53;;;;;;;;;;5035314;28;20228;-92
2022/01/25 06:15:16;;;;;;;14.93;8.60;;;;;;;;;;5015684;28;20265;-92
2022/01/25 06:17:45;;;;;;;22.70;10.90;;;;;;;;;;5026403;28;20237;-92
2022/01/25 06:20:13;;;;;;;22.40;10.30;;;;;;;;;;5034714;28;20715;-92
2022/01/25 06:22:40;;;;;;;20.27;9.87;;;;;;;;;;5027696;28;20621;-93
2022/01/25 06:25:11;;;;;;;21.73;9.67;;;;;;;;;;5036041;28;20207;-92
2022/01/25 06:27:39;;;;;;;17.93;10.03;;;;;;;;;;5044312;28;20237;-92
2022/01/25 06:30:08;;;;;;;23.17;11.47;;;;;;;;;;5037097;28;20245;-92
2022/01/25 06:32:35;;;;;;;18.73;9.87;;;;;;;;;;5023672;28;20645;-92
2022/01/25 06:35:03;;;;;;;16.73;10.40;;;;;;;;;;5033463;28;20233;-92
2022/01/25 06:37:30;;;;;;;18.07;9.27;;;;;;;;;;5034592;28;20222;-92
2022/01/25 06:39:58;;;;;;;18.77;9.77;;;;;;;;;;5041512;28;20229;-92
2022/01/25 06:45:29;;;;;;;16.30;9.50;;;;;;;;;;5034504;28;20186;-91
2022/01/25 06:47:56;;;;;;;19.43;9.70;;;;;;;;;;5034700;28;20206;-92
2022/01/25 06:50:24;;;;;;;18.40;10.93;;;;;;;;;;5037565;28;20277;-91
2022/01/25 06:52:51;;;;;;;19.37;10.23;;;;;;;;;;5039096;28;20218;-92
2022/01/25 06:55:19;;;;;;;14.33;8.67;;;;;;;;;;5034554;28;20214;-92
2022/01/25 07:05:44;;;;;;;15.47;9.10;;;;;;;;;;4992464;28;20266;-88
2022/01/25 07:08:12;;;;;;;19.50;11.00;;;;;;;;;;4994625;28;20215;-87
2022/01/25 07:10:39;;;;;;;20.00;11.00;;;;;;;;;;4994248;28;20247;-88
2022/01/25 07:13:06;;;;;;;19.03;10.83;;;;;;;;;;4994214;28;20204;-89
2022/01/25 07:15:34;;;;;;;19.23;9.27;;;;;;;;;;5001785;28;20204;-88
2022/01/25 07:18:01;;;;;;;19.23;8.93;;;;;;;;;;4993247;28;20208;-88
2022/01/25 07:20:28;;;;;;;17.20;9.73;;;;;;;;;;5006468;28;20336;-87
2022/01/25 07:22:57;;;;;;;17.80;9.70;;;;;;;;;;4998901;28;20234;-88
2022/01/25 07:25:25;;;;;;;21.53;11.30;;;;;;;;;;4998212;28;20246;-88
2022/01/25 07:27:52;;;;;;;21.87;10.47;;;;;;;;;;4994930;28;20656;-88
2022/01/25 07:30:19;;;;;;;19.77;10.13;;;;;;;;;;5012835;28;20337;-88
2022/01/25 07:32:46;;;;;;;19.90;10.77;;;;;;;;;;5012595;28;20648;-88
2022/01/25 07:35:14;;;;;;;17.97;10.67;;;;;;;;;;5015082;28;20219;-87
2022/01/25 07:37:41;;;;;;;15.90;9.43;;;;;;;;;;5012867;28;20294;-88
2022/01/25 07:40:11;;;;;;;19.03;9.90;;;;;;;;;;4997252;28;20638;-87
2022/01/25 07:42:40;;;;;;;18.17;9.50;;;;;;;;;;4993548;28;20610;-88
2022/01/25 07:45:10;;;;;;;18.97;9.73;;;;;;;;;;4993821;28;20228;-87
2022/01/25 07:47:38;;;;;;;17.73;9.57;;;;;;;;;;4997577;28;20587;-89
2022/01/25 07:50:05;;;;;;;16.60;9.57;;;;;;;;;;5012733;28;20275;-87
2022/01/25 07:52:32;;;;;;;13.53;8.97;;;;;;;;;;5004540;28;20207;-87
2022/01/25 07:55:00;;;;;;;14.90;9.07;;;;;;;;;;5012722;28;20743;-87
2022/01/25 07:57:29;;;;;;;14.37;8.77;;;;;;;;;;5004868;28;20207;-88
2022/01/25 07:59:57;;;;;;;17.40;9.00;;;;;;;;;;5012375;28;20630;-88
2022/01/25 08:02:24;;;;;;;17.57;9.33;;;;;;;;;;5012873;28;20227;-88
2022/01/25 08:04:52;;;;;;;17.20;9.67;;;;;;;;;;5005258;28;20253;-89
2022/01/25 08:07:19;;;;;;;17.03;9.60;;;;;;;;;;4993082;28;20310;-88
2022/01/25 08:09:49;;;;;;;17.33;8.57;;;;;;;;;;4992936;28;20208;-88
2022/01/25 08:12:16;;;;;;;18.63;9.00;;;;;;;;;;4993411;28;20214;-88
2022/01/25 08:14:45;;;;;;;17.07;10.50;;;;;;;;;;4992658;28;20631;-87
2022/01/25 08:17:15;;;;;;;18.40;9.50;;;;;;;;;;4993131;28;20204;-88
2022/01/25 08:19:43;;;;;;;19.53;8.87;;;;;;;;;;4992891;28;20204;-88
2022/01/25 08:22:10;;;;;;;17.27;9.33;;;;;;;;;;4992614;28;20319;-88
2022/01/25 08:24:38;;;;;;;21.30;11.63;;;;;;;;;;4993224;28;20232;-88
2022/01/25 08:27:05;;;;;;;20.03;10.70;;;;;;;;;;5009405;28;20203;-88
2022/01/25 08:29:33;;;;;;;18.63;11.43;;;;;;;;;;4995816;28;20215;-90
2022/01/25 08:32:01;;;;;;;18.40;10.30;;;;;;;;;;4997641;28;20211;-88
2022/01/25 08:34:29;;;;;;;20.87;10.20;;;;;;;;;;4995910;28;20227;-89
2022/01/25 08:36:56;;;;;;;16.73;9.40;;;;;;;;;;4994344;28;20210;-88
2022/01/25 08:39:26;;;;;;;18.53;10.37;;;;;;;;;;4994342;28;20207;-88
2022/01/25 08:41:53;;;;;;;18.10;11.03;;;;;;;;;;5005872;28;20226;-88
2022/01/25 08:44:23;;;;;;;19.07;10.13;;;;;;;;;;5018569;28;20210;-89
2022/01/25 08:46:50;;;;;;;16.33;10.33;;;;;;;;;;5004993;28;20686;-89
2022/01/25 08:49:20;;;;;;;16.57;10.93;;;;;;;;;;4995844;28;20267;-89
2022/01/25 08:51:48;;;;;;;19.00;10.47;;;;;;;;;;5007090;28;20205;-89
2022/01/25 08:54:16;;;;;;;18.27;11.00;;;;;;;;;;5007625;28;20688;-89
2022/01/25 08:56:43;;;;;;;17.73;10.73;;;;;;;;;;5008247;28;20204;-90
2022/01/25 08:59:11;;;;;;;18.70;10.27;;;;;;;;;;5010558;28;20662;-89
2022/01/25 09:01:38;;;;;;;18.97;11.00;;;;;;;;;;5010151;28;20219;-89
2022/01/25 09:04:06;;;;;;;20.40;11.20;;;;;;;;;;5011956;28;20281;-89
2022/01/25 09:06:35;;;;;;;17.30;11.23;;;;;;;;;;5003142;28;20230;-89
2022/01/25 09:09:03;;;;;;;18.23;11.30;;;;;;;;;;4999110;28;20215;-89
2022/01/25 09:11:31;;;;;;;17.67;10.80;;;;;;;;;;5011432;28;20211;-89
2022/01/25 09:13:58;;;;;;;17.77;10.50;;;;;;;;;;5007531;28;20577;-90
2022/01/25 09:16:26;;;;;;;24.47;11.87;;;;;;;;;;5005184;28;20200;-90
2022/01/25 09:18:53;;;;;;;19.57;11.10;;;;;;;;;;5006264;28;20254;-90
2022/01/25 09:21:21;;;;;;;18.77;10.77;;;;;;;;;;5007937;28;20258;-90
2022/01/25 09:23:49;;;;;;;19.10;10.63;;;;;;;;;;5001216;28;20235;-90
2022/01/25 09:26:18;;;;;;;18.23;11.40;;;;;;;;;;5004939;28;20214;-89
2022/01/25 09:28:45;;;;;;;17.17;10.53;;;;;;;;;;4994427;28;20210;-91
2022/01/25 09:31:13;;;;;;;16.90;10.43;;;;;;;;;;4999571;28;20214;-90
2022/01/25 09:33:40;;;;;;;17.90;10.83;;;;;;;;;;5008656;28;20224;-91
2022/01/25 09:36:07;;;;;;;16.00;9.83;;;;;;;;;;5008859;28;20211;-90
2022/01/25 09:38:35;;;;;;;18.70;11.13;;;;;;;;;;5006026;28;20219;-91
2022/01/25 09:41:04;;;;;;;17.47;10.70;;;;;;;;;;5000707;28;20208;-91
2022/01/25 09:43:31;;;;;;;18.83;11.17;;;;;;;;;;5002676;28;20250;-91
2022/01/25 09:45:59;;;;;;;17.73;10.13;;;;;;;;;;5006846;28;20211;-91
2022/01/25 09:48:26;;;;;;;17.87;11.13;;;;;;;;;;4997940;28;20196;-91
2022/01/25 09:50:54;;;;;;;14.93;9.13;;;;;;;;;;5007763;28;20213;-90
2022/01/25 09:53:21;;;;;;;16.17;9.43;;;;;;;;;;5001193;28;20332;-90
2022/01/25 09:55:49;;;;;;;17.37;10.07;;;;;;;;;;5000130;28;20207;-90
2022/01/25 09:58:17;;;;;;;17.20;10.43;;;;;;;;;;5002731;28;20203;-91
2022/01/25 10:00:47;;;;;;;15.07;9.60;;;;;;;;;;5007764;28;20265;-92
2022/01/25 10:03:19;;;;;;;16.27;10.30;;;;;;;;;;5001036;28;20249;-91
2022/01/25 10:05:48;;;;;;;18.77;10.53;;;;;;;;;;5005888;28;20262;-92
2022/01/25 10:08:17;;;;;;;15.93;10.03;;;;;;;;;;5005829;28;20207;-92
2022/01/25 10:10:45;;;;;;;19.27;11.10;;;;;;;;;;4999722;28;20270;-91
2022/01/25 10:13:20;;;;;;;15.53;9.97;;;;;;;;;;5006023;28;20262;-91
2022/01/25 10:15:49;;;;;;;15.07;10.27;;;;;;;;;;5001223;28;20208;-91
2022/01/25 10:18:17;;;;;;;16.83;9.80;;;;;;;;;;5001543;28;20203;-92
2022/01/25 10:20:47;;;;;;;18.23;10.23;;;;;;;;;;5004143;28;20203;-92
2022/01/25 10:23:18;;;;;;;17.43;10.47;;;;;;;;;;4992019;28;20230;-92
2022/01/25 10:25:46;;;;;;;17.20;10.40;;;;;;;;;;5002212;28;20215;-92
2022/01/25 10:28:14;;;;;;;18.47;10.20;;;;;;;;;;5001092;28;20649;-92
2022/01/25 10:30:44;;;;;;;18.60;10.93;;;;;;;;;;5003240;28;20714;-92
2022/01/25 10:33:21;;;;;;;17.57;10.20;;;;;;;;;;5002572;28;20230;-92
2022/01/25 10:35:48;;;;;;;14.83;9.13;;;;;;;;;;5003948;28;20232;-92
2022/01/25 10:38:22;;;;;;;16.40;10.70;;;;;;;;;;4997117;28;20212;-92
2022/01/25 10:40:57;;;;;;;17.77;10.23;;;;;;;;;;5004003;28;20596;-92
2022/01/25 10:43:25;;;;;;;17.50;10.40;;;;;;;;;;5002627;28;20697;-93
2022/01/25 10:46:10;;;;;;;16.67;10.40;;;;;;;;;;5007865;28;20210;-93
2022/01/25 10:48:39;;;;;;;16.43;10.07;;;;;;;;;;5004392;28;20207;-93
2022/01/25 10:51:08;;;;;;;21.17;10.60;;;;;;;;;;5011731;28;20226;-92
2022/01/25 10:53:35;;;;;;;16.20;10.13;;;;;;;;;;5001188;28;20255;-92
2022/01/25 10:56:03;;;;;;;17.30;9.93;;;;;;;;;;5008825;28;20214;-93
2022/01/25 10:58:31;;;;;;;16.03;10.23;;;;;;;;;;5001753;28;20215;-92
2022/01/25 11:00:59;;;;;;;15.33;9.70;;;;;;;;;;5006786;28;20679;-92
2022/01/25 11:03:27;;;;;;;16.63;10.50;;;;;;;;;;5008433;28;20239;-92
2022/01/25 11:05:57;;;;;;;14.73;9.23;;;;;;;;;;5008872;28;20222;-92
2022/01/25 11:08:25;;;;;;;15.70;9.67;;;;;;;;;;5010471;28;20226;-93
2022/01/25 11:10:56;;;;;;;18.13;9.43;;;;;;;;;;5006533;28;20234;-92
2022/01/25 11:13:35;;;;;;;16.17;9.47;;;;;;;;;;5001279;28;20230;-93
2022/01/25 11:16:04;;;;;;;12.00;8.07;;;;;;;;;;4999665;28;20672;-92
2022/01/25 11:18:31;;;;;;;15.80;9.43;;;;;;;;;;5002379;28;20211;-93
2022/01/25 11:21:01;;;;;;;12.33;8.33;;;;;;;;;;5001094;28;20213;-93
2022/01/25 11:23:29;;;;;;;17.40;10.10;;;;;;;;;;5010206;28;20231;-92
2022/01/25 11:25:57;;;;;;;12.83;9.23;;;;;;;;;;5007228;28;20270;-92
2022/01/25 11:28:24;;;;;;;15.47;9.20;;;;;;;;;;5009681;28;20679;-93
2022/01/25 11:30:52;;;;;;;17.70;10.50;;;;;;;;;;5017348;28;20207;-93
2022/01/25 11:33:21;;;;;;;13.87;9.13;;;;;;;;;;5024079;28;20262;-93
